createdAt,value
2022-10-19T00:00:52.486Z,18.95
2022-10-19T00:03:33.652Z,21.20
2022-10-19T00:06:02.304Z,17.55
2022-10-19T00:08:31.444Z,17.48
2022-10-19T00:11:01.982Z,18.92
2022-10-19T00:13:29.842Z,13.52
2022-10-19T00:15:57.824Z,14.93
2022-10-19T00:18:25.690Z,11.65
2022-10-19T00:20:53.933Z,15.40
2022-10-19T00:23:22.842Z,12.23
2022-10-19T00:25:58.714Z,13.38
2022-10-19T00:28:26.849Z,16.27
2022-10-19T00:30:55.133Z,18.65
2022-10-19T00:33:23.376Z,24.10
2022-10-19T00:35:53.117Z,21.58
2022-10-19T00:38:22.082Z,24.27
2022-10-19T00:40:50.569Z,24.23
2022-10-19T00:43:22.594Z,24.98
2022-10-19T00:45:50.866Z,32.17
2022-10-19T00:48:22.145Z,28.05
2022-10-19T00:50:52.181Z,36.33
2022-10-19T00:53:20.153Z,28.67
2022-10-19T00:55:48.334Z,25.63
2022-10-19T00:58:16.247Z,33.85
2022-10-19T01:00:45.966Z,26.25
2022-10-19T01:03:14.980Z,23.17
2022-10-19T01:05:43.712Z,23.00
2022-10-19T01:08:12.759Z,24.00
2022-10-19T01:10:52.432Z,20.13
2022-10-19T01:13:35.078Z,15.13
2022-10-19T01:16:12.424Z,22.55
2022-10-19T01:18:46.680Z,16.83
2022-10-19T01:21:22.089Z,16.90
2022-10-19T01:24:25.092Z,12.13
2022-10-19T01:27:16.912Z,10.82
2022-10-19T01:30:17.332Z,12.20
2022-10-19T01:33:05.373Z,9.68
2022-10-19T01:35:39.254Z,10.35
2022-10-19T01:38:17.549Z,10.18
2022-10-19T01:40:54.996Z,10.25
2022-10-19T01:43:33.934Z,11.07
2022-10-19T01:46:10.132Z,9.98
2022-10-19T01:48:41.830Z,11.60
2022-10-19T01:51:14.790Z,10.77
2022-10-19T01:53:53.484Z,11.77
2022-10-19T01:56:25.599Z,11.00
2022-10-19T02:01:28.493Z,10.25
2022-10-19T02:03:58.168Z,10.00
2022-10-19T02:06:26.416Z,12.68
2022-10-19T02:08:55.628Z,12.10
2022-10-19T02:11:24.450Z,11.63
2022-10-19T02:13:57.701Z,12.73
2022-10-19T02:16:31.672Z,12.52
2022-10-19T02:19:01.798Z,12.23
2022-10-19T02:21:29.753Z,13.40
2022-10-19T02:23:57.612Z,16.90
2022-10-19T02:26:25.536Z,17.50
2022-10-19T02:28:55.713Z,16.27
2022-10-19T02:31:24.288Z,20.30
2022-10-19T02:33:54.281Z,27.90
2022-10-19T02:36:22.348Z,26.85
2022-10-19T02:38:50.409Z,34.20
2022-10-19T02:41:22.966Z,28.10
2022-10-19T02:43:57.636Z,30.75
2022-10-19T02:46:31.202Z,41.65
2022-10-19T02:49:02.512Z,47.25
2022-10-19T02:51:32.892Z,46.03
2022-10-19T02:54:04.184Z,56.28
2022-10-19T02:56:33.890Z,52.13
2022-10-19T02:59:02.128Z,51.13
2022-10-19T03:01:30.012Z,53.47
2022-10-19T03:03:58.141Z,53.15
2022-10-19T03:06:27.257Z,60.83
2022-10-19T03:08:55.351Z,58.10
2022-10-19T03:11:23.322Z,54.08
2022-10-19T03:13:51.228Z,56.78
2022-10-19T03:16:19.039Z,64.15
2022-10-19T03:18:49.155Z,68.22
2022-10-19T03:21:17.293Z,60.78
2022-10-19T03:23:46.534Z,64.88
2022-10-19T03:26:16.266Z,64.25
2022-10-19T03:28:44.531Z,60.38
2022-10-19T03:31:12.485Z,63.05
2022-10-19T03:33:40.654Z,59.58
2022-10-19T03:36:20.771Z,50.90
2022-10-19T03:38:51.245Z,58.05
2022-10-19T03:41:19.328Z,48.33
2022-10-19T03:43:47.647Z,46.65
2022-10-19T03:46:16.165Z,49.92
2022-10-19T03:48:45.036Z,53.70
2022-10-19T03:51:14.553Z,52.10
2022-10-19T03:53:43.550Z,48.65
2022-10-19T03:56:16.019Z,49.70
2022-10-19T03:58:46.078Z,51.45
2022-10-19T04:01:16.789Z,41.92
2022-10-19T04:03:45.099Z,47.15
2022-10-19T04:06:18.247Z,53.47
2022-10-19T04:08:50.118Z,54.75
2022-10-19T04:11:22.004Z,58.13
2022-10-19T04:13:50.721Z,50.97
2022-10-19T04:16:19.145Z,55.08
2022-10-19T04:18:47.317Z,50.65
2022-10-19T04:21:22.881Z,51.67
2022-10-19T04:23:52.623Z,50.90
2022-10-19T04:26:21.890Z,56.15
2022-10-19T04:28:50.129Z,53.63
2022-10-19T04:31:18.273Z,51.72
2022-10-19T04:36:19.460Z,59.15
2022-10-19T04:38:47.423Z,59.63
2022-10-19T04:41:17.046Z,55.92
2022-10-19T04:43:46.708Z,61.78
2022-10-19T04:46:16.603Z,62.13
2022-10-19T04:48:45.357Z,60.40
2022-10-19T04:51:14.324Z,62.63
2022-10-19T04:53:43.316Z,66.68
2022-10-19T04:56:14.425Z,58.15
2022-10-19T04:58:43.097Z,64.15
2022-10-19T05:01:14.263Z,57.38
2022-10-19T05:03:42.318Z,65.78
2022-10-19T05:06:10.551Z,68.97
2022-10-19T05:08:39.038Z,67.90
2022-10-19T05:11:08.294Z,67.25
2022-10-19T05:13:37.838Z,71.85
2022-10-19T05:16:07.398Z,67.78
2022-10-19T05:18:36.671Z,75.75
2022-10-19T05:21:06.367Z,75.45
2022-10-19T05:23:34.871Z,72.80
2022-10-19T05:26:04.733Z,68.55
2022-10-19T05:28:33.419Z,78.00
2022-10-19T05:31:12.240Z,66.53
2022-10-19T05:33:42.697Z,74.72
2022-10-19T05:36:15.609Z,74.72
2022-10-19T05:38:44.127Z,75.65
2022-10-19T05:41:12.217Z,78.78
2022-10-19T05:43:41.166Z,77.78
2022-10-19T05:46:11.872Z,77.38
2022-10-19T05:48:41.926Z,73.00
2022-10-19T05:51:12.593Z,77.65
2022-10-19T05:53:40.904Z,78.82
2022-10-19T05:56:12.355Z,71.97
2022-10-19T05:58:40.331Z,70.32
2022-10-19T06:01:09.317Z,75.13
2022-10-19T06:03:37.485Z,72.28
2022-10-19T06:06:08.334Z,65.25
2022-10-19T06:08:37.514Z,60.47
2022-10-19T06:11:07.440Z,60.05
2022-10-19T06:13:35.891Z,59.92
2022-10-19T06:16:04.339Z,55.45
2022-10-19T06:18:32.404Z,62.13
2022-10-19T06:21:03.818Z,56.85
2022-10-19T06:23:33.881Z,44.35
2022-10-19T06:26:03.953Z,45.83
2022-10-19T06:28:31.938Z,46.25
2022-10-19T06:31:00.478Z,49.25
2022-10-19T06:33:29.923Z,52.47
2022-10-19T06:35:57.894Z,49.03
2022-10-19T06:38:25.934Z,50.25
2022-10-19T06:40:59.314Z,47.60
2022-10-19T06:43:28.180Z,47.60
2022-10-19T06:45:56.409Z,46.42
2022-10-19T06:48:24.922Z,47.53
2022-10-19T06:50:57.605Z,44.47
2022-10-19T06:53:25.714Z,41.78
2022-10-19T06:55:54.792Z,46.42
2022-10-19T06:58:22.776Z,46.05
2022-10-19T07:00:57.035Z,37.78
2022-10-19T07:03:25.869Z,39.88
2022-10-19T07:05:54.777Z,38.92
2022-10-19T07:08:22.935Z,37.92
2022-10-19T07:10:51.804Z,31.98
2022-10-19T07:13:21.584Z,38.17
2022-10-19T07:15:49.645Z,33.88
2022-10-19T07:18:17.675Z,34.70
2022-10-19T07:20:55.018Z,31.77
2022-10-19T07:23:23.201Z,31.27
2022-10-19T07:25:52.621Z,32.95
2022-10-19T07:28:22.700Z,33.17
2022-10-19T07:30:50.524Z,28.48
2022-10-19T07:33:18.489Z,29.15
2022-10-19T07:35:46.326Z,24.05
2022-10-19T07:38:14.477Z,26.48
2022-10-19T07:40:44.917Z,26.25
2022-10-19T07:43:15.422Z,27.17
2022-10-19T07:45:44.485Z,31.08
2022-10-19T07:48:12.416Z,25.33
2022-10-19T07:50:40.338Z,32.45
2022-10-19T07:53:08.474Z,27.58
2022-10-19T07:55:36.175Z,19.92
2022-10-19T07:58:04.220Z,20.80
2022-10-19T08:00:32.036Z,23.13
2022-10-19T08:03:31.550Z,21.50
2022-10-19T08:05:49.404Z,23.13
2022-10-19T08:08:17.372Z,26.73
2022-10-19T08:10:45.070Z,31.20
2022-10-19T08:13:13.217Z,27.23
2022-10-19T08:15:40.920Z,23.83
2022-10-19T08:18:11.401Z,24.92
2022-10-19T08:20:42.029Z,35.38
2022-10-19T08:23:10.100Z,35.70
2022-10-19T08:25:38.167Z,30.60
2022-10-19T08:28:06.350Z,26.40
2022-10-19T08:30:35.213Z,28.17
2022-10-19T08:33:04.418Z,29.65
2022-10-19T08:35:33.812Z,28.63
2022-10-19T08:38:02.905Z,18.65
2022-10-19T08:40:32.120Z,23.70
2022-10-19T08:43:06.253Z,29.13
2022-10-19T08:45:43.031Z,22.70
2022-10-19T08:48:25.253Z,22.15
2022-10-19T08:50:55.563Z,15.57
2022-10-19T08:53:32.749Z,24.05
2022-10-19T08:56:14.989Z,24.42
2022-10-19T08:58:58.953Z,22.00
2022-10-19T09:01:37.743Z,18.95
2022-10-19T09:04:12.159Z,17.40
2022-10-19T09:06:49.816Z,19.10
2022-10-19T09:09:21.444Z,17.60
2022-10-19T09:11:52.019Z,18.07
2022-10-19T09:14:26.893Z,17.92
2022-10-19T09:16:57.718Z,21.70
2022-10-19T09:19:30.807Z,24.65
2022-10-19T09:22:05.233Z,25.27
2022-10-19T09:24:42.851Z,24.98
2022-10-19T09:27:20.952Z,21.95
2022-10-19T09:29:52.124Z,26.02
2022-10-19T09:32:25.373Z,25.80
2022-10-19T09:34:56.121Z,27.80
2022-10-19T09:37:26.775Z,27.85
2022-10-19T09:39:56.050Z,21.17
2022-10-19T09:42:29.311Z,23.70
2022-10-19T09:44:59.403Z,24.42
2022-10-19T09:47:35.808Z,26.50
2022-10-19T09:50:15.064Z,20.80
2022-10-19T09:52:45.564Z,23.50
2022-10-19T09:55:27.701Z,17.17
2022-10-19T09:58:07.790Z,15.32
2022-10-19T10:00:39.763Z,20.08
2022-10-19T10:03:08.709Z,19.38
2022-10-19T10:05:38.679Z,20.70
2022-10-19T10:08:15.446Z,17.63
2022-10-19T10:10:46.343Z,11.18
2022-10-19T10:13:18.826Z,20.05
2022-10-19T10:15:56.489Z,11.88
2022-10-19T10:18:26.378Z,9.07
2022-10-19T10:21:01.041Z,15.18
2022-10-19T10:23:36.069Z,9.70
2022-10-19T10:26:05.743Z,8.48
2022-10-19T10:28:33.570Z,14.23
2022-10-19T10:31:04.297Z,12.00
2022-10-19T10:33:47.620Z,11.65
2022-10-19T10:36:15.800Z,14.15
2022-10-19T10:38:48.182Z,8.98
2022-10-19T10:41:18.740Z,8.55
2022-10-19T10:43:58.449Z,8.70
2022-10-19T10:46:33.602Z,5.43
2022-10-19T10:49:05.137Z,9.13
2022-10-19T10:51:38.609Z,10.35
2022-10-19T10:54:27.027Z,11.32
2022-10-19T10:57:13.960Z,11.48
2022-10-19T10:59:50.672Z,10.82
2022-10-19T11:02:36.542Z,7.28
2022-10-19T11:05:11.718Z,6.30
2022-10-19T11:07:43.947Z,11.05
2022-10-19T11:12:51.199Z,4.88
2022-10-19T11:15:23.676Z,6.10
2022-10-19T11:18:07.474Z,11.95
2022-10-19T11:20:41.140Z,5.40
2022-10-19T11:23:17.040Z,6.25
2022-10-19T11:26:02.109Z,15.32
2022-10-19T11:28:48.114Z,4.60
2022-10-19T11:31:21.853Z,4.30
2022-10-19T11:34:00.276Z,4.07
2022-10-19T11:36:46.926Z,3.40
2022-10-19T11:39:34.538Z,6.00
2022-10-19T11:42:12.770Z,6.70
2022-10-19T11:44:56.059Z,5.28
2022-10-19T11:47:35.168Z,4.05
2022-10-19T11:50:15.666Z,4.60
2022-10-19T11:52:51.877Z,8.20
2022-10-19T11:55:34.210Z,4.93
2022-10-19T11:58:18.726Z,5.82
2022-10-19T12:00:51.092Z,6.57
2022-10-19T12:06:08.057Z,3.72
2022-10-19T12:08:51.241Z,3.17
2022-10-19T12:11:31.531Z,4.80
2022-10-19T12:14:06.056Z,5.88
2022-10-19T12:16:39.062Z,4.40
2022-10-19T12:19:13.828Z,5.30
2022-10-19T12:21:44.174Z,7.47
2022-10-19T12:24:15.480Z,7.28
2022-10-19T12:26:46.021Z,6.53
2022-10-19T12:29:18.591Z,7.40
2022-10-19T12:31:47.944Z,5.15
2022-10-19T12:34:27.659Z,4.13
2022-10-19T12:36:59.966Z,7.68
2022-10-19T12:39:35.617Z,7.10
2022-10-19T12:42:13.578Z,7.93
2022-10-19T12:45:16.808Z,4.68
2022-10-19T12:48:32.877Z,6.63
2022-10-19T12:51:04.042Z,8.50
2022-10-19T12:53:36.349Z,4.70
2022-10-19T12:56:06.773Z,9.10
2022-10-19T12:58:44.970Z,9.73
2022-10-19T13:01:21.042Z,6.55
2022-10-19T13:03:51.646Z,2.70
2022-10-19T13:06:33.044Z,8.70
2022-10-19T13:09:04.459Z,5.75
2022-10-19T13:11:32.893Z,9.65
2022-10-19T13:14:04.801Z,4.35
2022-10-19T13:16:58.003Z,8.00
2022-10-19T13:19:26.637Z,8.02
2022-10-19T13:22:03.926Z,5.88
2022-10-19T13:24:37.975Z,6.03
2022-10-19T13:27:29.013Z,4.82
2022-10-19T13:29:57.174Z,6.90
2022-10-19T13:32:42.854Z,4.57
2022-10-19T13:35:33.695Z,7.40
2022-10-19T13:38:20.952Z,11.48
2022-10-19T13:41:03.362Z,8.00
2022-10-19T13:43:33.531Z,8.13
2022-10-19T13:46:09.017Z,7.13
2022-10-19T13:49:05.689Z,14.63
2022-10-19T13:51:44.138Z,12.95
2022-10-19T13:54:28.918Z,14.23
2022-10-19T13:57:12.827Z,9.57
2022-10-19T14:00:00.242Z,8.93
2022-10-19T14:02:51.473Z,9.63
2022-10-19T14:05:32.217Z,15.80
2022-10-19T14:08:10.801Z,13.32
2022-10-19T14:13:27.188Z,12.27
2022-10-19T14:15:57.075Z,13.35
2022-10-19T14:18:27.129Z,15.40
2022-10-19T14:21:01.332Z,17.58
2022-10-19T14:23:30.902Z,11.23
2022-10-19T14:26:01.550Z,13.18
2022-10-19T14:28:30.185Z,6.78
2022-10-19T14:31:01.541Z,11.02
2022-10-19T14:33:33.196Z,12.95
2022-10-19T14:36:02.712Z,12.17
2022-10-19T14:38:35.107Z,12.05
2022-10-19T14:41:03.049Z,14.50
2022-10-19T14:43:32.866Z,14.95
2022-10-19T14:46:14.570Z,44.08
2022-10-19T14:48:45.973Z,8.82
2022-10-19T14:51:29.403Z,9.02
2022-10-19T14:54:01.849Z,8.32
2022-10-19T14:59:04.678Z,8.35
2022-10-19T15:01:32.500Z,10.90
2022-10-19T15:04:00.593Z,7.40
2022-10-19T15:06:33.043Z,11.48
2022-10-19T15:09:03.792Z,7.60
2022-10-19T15:11:38.205Z,8.25
2022-10-19T15:14:10.659Z,13.75
2022-10-19T15:16:45.295Z,14.23
2022-10-19T15:19:19.427Z,9.02
2022-10-19T15:21:48.929Z,12.27
2022-10-19T15:24:25.992Z,8.65
2022-10-19T15:27:08.799Z,8.40
2022-10-19T15:29:37.845Z,7.28
2022-10-19T15:32:17.087Z,10.60
2022-10-19T15:34:46.483Z,14.25
2022-10-19T15:37:21.120Z,18.17
2022-10-19T15:39:49.635Z,16.50
2022-10-19T15:42:39.819Z,20.73
2022-10-19T15:45:33.131Z,18.45
2022-10-19T15:48:26.447Z,14.30
2022-10-19T15:50:55.673Z,13.13
2022-10-19T15:53:26.269Z,15.90
2022-10-19T15:55:54.322Z,21.27
2022-10-19T15:58:22.179Z,15.32
2022-10-19T16:00:50.386Z,19.10
2022-10-19T16:03:18.141Z,13.55
2022-10-19T16:05:47.095Z,12.98
2022-10-19T16:08:15.228Z,15.48
2022-10-19T16:10:44.467Z,14.38
2022-10-19T16:13:12.214Z,13.05
2022-10-19T16:15:40.332Z,21.10
2022-10-19T16:18:08.043Z,16.95
2022-10-19T16:20:36.198Z,13.68
2022-10-19T16:23:04.144Z,18.10
2022-10-19T16:25:32.067Z,17.58
2022-10-19T16:28:01.304Z,18.73
2022-10-19T16:30:29.180Z,16.50
2022-10-19T16:32:57.029Z,23.20
2022-10-19T16:35:25.353Z,16.45
2022-10-19T16:37:53.040Z,18.92
2022-10-19T16:40:20.996Z,20.27
2022-10-19T16:42:48.879Z,16.42
2022-10-19T16:45:18.438Z,14.55
2022-10-19T16:47:50.421Z,14.73
2022-10-19T16:50:18.703Z,16.60
2022-10-19T16:52:46.586Z,20.05
2022-10-19T16:55:14.524Z,15.10
2022-10-19T16:57:42.895Z,17.60
2022-10-19T17:00:11.805Z,19.33
2022-10-19T17:02:43.183Z,16.17
2022-10-19T17:05:14.129Z,11.63
2022-10-19T17:07:41.968Z,14.88
2022-10-19T17:10:10.747Z,22.17
2022-10-19T17:12:40.997Z,11.65
2022-10-19T17:15:40.824Z,14.57
2022-10-19T17:18:00.291Z,10.32
2022-10-19T17:20:28.225Z,8.32
2022-10-19T17:22:55.959Z,12.07
2022-10-19T17:25:24.125Z,9.00
2022-10-19T17:27:51.998Z,11.98
2022-10-19T17:30:20.129Z,9.98
2022-10-19T17:32:48.090Z,10.93
2022-10-19T17:35:17.373Z,13.32
2022-10-19T17:37:45.109Z,10.05
2022-10-19T17:40:13.649Z,13.13
2022-10-19T17:42:41.706Z,14.25
2022-10-19T17:45:10.396Z,16.10
2022-10-19T17:47:38.492Z,19.17
2022-10-19T17:50:07.240Z,19.20
2022-10-19T17:52:36.329Z,23.77
2022-10-19T17:55:12.098Z,19.52
2022-10-19T17:57:40.173Z,16.80
2022-10-19T18:00:09.050Z,12.77
2022-10-19T18:02:36.819Z,12.15
2022-10-19T18:05:05.349Z,10.38
2022-10-19T18:07:33.862Z,9.98
2022-10-19T18:10:03.279Z,15.10
2022-10-19T18:12:30.976Z,15.10
2022-10-19T18:14:58.962Z,11.00
2022-10-19T18:17:27.774Z,13.40
2022-10-19T18:19:55.905Z,11.20
2022-10-19T18:22:23.893Z,10.70
2022-10-19T18:24:51.732Z,14.68
2022-10-19T18:27:20.818Z,12.77
2022-10-19T18:29:49.141Z,13.23
2022-10-19T18:32:16.908Z,11.38
2022-10-19T18:34:45.090Z,10.95
2022-10-19T18:37:13.144Z,15.73
2022-10-19T18:39:41.204Z,14.07
2022-10-19T18:42:12.047Z,9.13
2022-10-19T18:44:41.455Z,14.02
2022-10-19T18:47:09.179Z,11.32
2022-10-19T18:49:37.245Z,16.63
2022-10-19T18:52:05.294Z,12.00
2022-10-19T18:54:33.189Z,12.18
2022-10-19T18:57:01.052Z,14.52
2022-10-19T18:59:29.207Z,11.48
2022-10-19T19:01:58.353Z,13.60
2022-10-19T19:04:26.292Z,11.23
2022-10-19T19:06:54.173Z,14.13
2022-10-19T19:09:22.269Z,15.60
2022-10-19T19:11:51.488Z,16.90
2022-10-19T19:14:21.834Z,16.60
2022-10-19T19:16:49.637Z,21.98
2022-10-19T19:19:20.198Z,14.27
2022-10-19T19:21:48.937Z,21.88
2022-10-19T19:24:18.844Z,20.48
2022-10-19T19:26:50.003Z,15.85
2022-10-19T19:29:18.835Z,17.38
2022-10-19T19:31:47.133Z,19.23
2022-10-19T19:34:15.332Z,14.43
2022-10-19T19:36:47.943Z,19.73
2022-10-19T19:39:18.603Z,18.27
2022-10-19T19:41:46.717Z,21.60
2022-10-19T19:44:14.585Z,27.38
2022-10-19T19:46:42.453Z,19.88
2022-10-19T19:49:10.588Z,27.00
2022-10-19T19:51:38.419Z,28.27
2022-10-19T19:54:07.881Z,25.88
2022-10-19T19:56:37.200Z,32.00
2022-10-19T19:59:05.249Z,25.08
2022-10-19T20:01:34.039Z,26.77
2022-10-19T20:06:37.520Z,20.80
2022-10-19T20:09:07.402Z,24.20
2022-10-19T20:11:38.362Z,27.60
2022-10-19T20:14:09.206Z,27.38
2022-10-19T20:16:37.089Z,30.60
2022-10-19T20:19:07.610Z,25.52
2022-10-19T20:21:35.527Z,29.92
2022-10-19T20:24:03.963Z,22.63
2022-10-19T20:26:33.455Z,29.05
2022-10-19T20:29:02.595Z,28.80
2022-10-19T20:31:31.261Z,27.85
2022-10-19T20:33:59.195Z,29.20
2022-10-19T20:36:27.752Z,29.13
2022-10-19T20:38:57.969Z,25.42
2022-10-19T20:41:27.592Z,25.27
2022-10-19T20:43:57.942Z,25.15
2022-10-19T20:46:27.814Z,28.83
2022-10-19T20:48:56.928Z,28.17
2022-10-19T20:51:30.758Z,30.48
2022-10-19T20:54:01.386Z,26.27
2022-10-19T20:56:32.071Z,31.90
2022-10-19T21:01:37.371Z,33.95
2022-10-19T21:04:07.504Z,28.70
2022-10-19T21:06:38.425Z,28.33
2022-10-19T21:09:07.462Z,24.80
2022-10-19T21:11:37.009Z,26.73
2022-10-19T21:14:08.486Z,25.83
2022-10-19T21:16:37.658Z,31.75
2022-10-19T21:19:08.902Z,30.10
2022-10-19T21:21:41.828Z,31.27
2022-10-19T21:24:13.454Z,25.42
2022-10-19T21:26:42.095Z,33.00
2022-10-19T21:29:12.819Z,26.38
2022-10-19T21:31:45.223Z,29.42
2022-10-19T21:34:17.810Z,36.33
2022-10-19T21:36:45.851Z,29.85
2022-10-19T21:39:13.809Z,28.60
2022-10-19T21:41:41.896Z,27.05
2022-10-19T21:44:11.607Z,29.63
2022-10-19T21:46:39.385Z,34.67
2022-10-19T21:49:07.265Z,33.63
2022-10-19T21:51:38.345Z,37.20
2022-10-19T21:54:08.146Z,41.03
2022-10-19T21:56:36.149Z,41.95
2022-10-19T21:59:04.403Z,50.28
2022-10-19T22:01:38.514Z,38.85
2022-10-19T22:04:12.525Z,44.03
2022-10-19T22:06:40.540Z,49.30
2022-10-19T22:09:10.559Z,40.40
2022-10-19T22:11:38.670Z,38.53
2022-10-19T22:14:06.722Z,40.65
2022-10-19T22:16:36.786Z,37.85
2022-10-19T22:19:06.009Z,43.55
2022-10-19T22:21:34.986Z,37.20
2022-10-19T22:24:05.214Z,39.95
2022-10-19T22:26:34.958Z,40.17
2022-10-19T22:29:05.246Z,39.25
2022-10-19T22:31:34.045Z,35.80
2022-10-19T22:34:05.898Z,47.40
2022-10-19T22:36:33.650Z,39.10
2022-10-19T22:39:01.746Z,44.88
2022-10-19T22:41:29.821Z,43.08
2022-10-19T22:43:57.846Z,45.55
2022-10-19T22:46:25.920Z,44.47
2022-10-19T22:48:54.207Z,42.63
2022-10-19T22:51:23.604Z,40.70
2022-10-19T22:53:51.687Z,37.60
2022-10-19T22:56:19.678Z,36.13
2022-10-19T22:58:47.845Z,37.33
2022-10-19T23:01:16.779Z,37.13
2022-10-19T23:03:45.156Z,41.40
2022-10-19T23:06:16.177Z,41.53
2022-10-19T23:08:45.885Z,38.33
2022-10-19T23:11:14.087Z,43.78
2022-10-19T23:13:42.446Z,40.47
2022-10-19T23:16:11.044Z,38.22
2022-10-19T23:18:41.987Z,30.77
2022-10-19T23:21:12.692Z,33.17
2022-10-19T23:23:41.937Z,39.95
2022-10-19T23:26:13.284Z,42.85
2022-10-19T23:28:43.526Z,32.85
2022-10-19T23:31:13.425Z,40.80
2022-10-19T23:33:42.823Z,42.88
2022-10-19T23:36:14.243Z,44.63
2022-10-19T23:38:43.657Z,40.40
2022-10-19T23:41:14.068Z,38.30
2022-10-19T23:43:42.129Z,42.63
2022-10-19T23:46:10.337Z,50.20
2022-10-19T23:48:38.918Z,47.42
2022-10-19T23:51:08.566Z,42.10
2022-10-19T23:53:40.887Z,37.80
2022-10-19T23:56:11.571Z,46.60
2022-10-19T23:58:41.559Z,41.20
